createdAt,value
2023-01-25T00:01:33.840Z,102452.13
2023-01-25T00:04:02.296Z,102457.34
2023-01-25T00:06:30.579Z,102449.28
2023-01-25T00:08:58.842Z,102446.75
2023-01-25T00:11:27.174Z,102446.47
2023-01-25T00:13:57.140Z,102438.72
2023-01-25T00:16:25.499Z,102430.97
2023-01-25T00:18:53.963Z,102429.56
2023-01-25T00:21:24.810Z,102431.63
2023-01-25T00:23:54.477Z,102431.16
2023-01-25T00:26:23.005Z,102434.78
2023-01-25T00:28:51.919Z,102433.28
2023-01-25T00:31:33.302Z,102431.81
2023-01-25T00:34:07.630Z,102435.13
2023-01-25T00:36:42.348Z,102431.03
2023-01-25T00:47:38.559Z,102426.59
2023-01-25T00:50:09.123Z,102424.00
2023-01-25T00:52:38.775Z,102424.59
2023-01-25T00:55:08.843Z,102425.69
2023-01-25T00:57:37.529Z,102421.53
2023-01-25T01:00:07.238Z,102415.91
2023-01-25T01:02:35.359Z,102414.69
2023-01-25T01:05:05.471Z,102418.78
2023-01-25T01:07:34.100Z,102412.97
2023-01-25T01:10:02.280Z,102410.25
2023-01-25T01:12:30.520Z,102405.66
2023-01-25T01:14:59.105Z,102406.88
2023-01-25T01:17:28.428Z,102392.38
2023-01-25T01:19:56.554Z,102403.13
2023-01-25T01:22:26.270Z,102402.53
2023-01-25T01:24:56.968Z,102404.47
2023-01-25T01:27:31.051Z,102410.34
2023-01-25T01:30:20.180Z,102409.03
2023-01-25T01:33:07.278Z,102408.78
2023-01-25T01:36:44.057Z,102406.09
2023-01-25T01:39:13.710Z,102398.91
2023-01-25T01:41:41.956Z,102400.88
2023-01-25T01:44:17.089Z,102399.81
2023-01-25T01:46:52.609Z,102396.13
2023-01-25T01:49:25.831Z,102392.19
2023-01-25T01:52:01.204Z,102394.47
2023-01-25T01:54:37.584Z,102393.91
2023-01-25T01:57:11.966Z,102393.50
2023-01-25T01:59:45.686Z,102396.31
2023-01-25T02:02:15.184Z,102394.78
2023-01-25T02:05:38.595Z,102390.78
2023-01-25T02:08:13.864Z,102396.06
2023-01-25T02:10:45.158Z,102395.41
2023-01-25T02:17:05.097Z,102401.47
2023-01-25T02:19:44.845Z,102397.75
2023-01-25T02:22:17.324Z,102388.78
2023-01-25T02:24:52.797Z,102389.25
2023-01-25T02:31:36.948Z,102390.19
2023-01-25T02:37:46.667Z,102369.72
2023-01-25T02:40:14.900Z,102378.69
2023-01-25T02:46:20.083Z,102370.69
2023-01-25T02:48:48.428Z,102381.44
2023-01-25T02:51:16.568Z,102385.06
2023-01-25T02:53:44.829Z,102384.16
2023-01-25T02:56:13.371Z,102378.44
2023-01-25T02:58:41.699Z,102373.22
2023-01-25T03:01:11.706Z,102376.53
2023-01-25T03:03:43.815Z,102383.25
2023-01-25T03:06:12.027Z,102372.78
2023-01-25T03:08:41.574Z,102377.75
2023-01-25T03:11:10.201Z,102377.63
2023-01-25T03:13:39.643Z,102372.72
2023-01-25T03:16:10.918Z,102374.78
2023-01-25T03:18:43.889Z,102367.56
2023-01-25T03:21:16.533Z,102361.03
2023-01-25T03:23:46.198Z,102360.72
2023-01-25T03:26:21.459Z,102363.44
2023-01-25T03:29:08.517Z,102362.88
2023-01-25T03:31:41.678Z,102366.06
2023-01-25T03:34:11.719Z,102357.97
2023-01-25T03:36:43.130Z,102356.75
2023-01-25T03:39:11.489Z,102358.94
2023-01-25T03:41:44.178Z,102349.13
2023-01-25T03:44:15.482Z,102360.38
2023-01-25T03:46:52.423Z,102366.50
2023-01-25T03:49:23.367Z,102366.75
2023-01-25T03:52:27.161Z,102360.38
2023-01-25T03:54:57.610Z,102361.13
2023-01-25T03:57:27.298Z,102360.38
2023-01-25T04:00:01.677Z,102359.81
2023-01-25T04:02:33.497Z,102356.25
2023-01-25T04:08:46.553Z,102357.13
2023-01-25T04:14:48.271Z,102354.41
2023-01-25T04:17:31.820Z,102348.19
2023-01-25T04:20:05.170Z,102349.69
2023-01-25T04:22:38.377Z,102346.03
2023-01-25T04:25:10.852Z,102345.56
2023-01-25T04:27:47.599Z,102347.09
2023-01-25T04:30:18.058Z,102340.56
2023-01-25T04:33:10.300Z,102338.66
2023-01-25T04:35:41.108Z,102340.56
2023-01-25T04:38:11.459Z,102350.84
2023-01-25T04:40:43.976Z,102344.94
2023-01-25T04:43:15.410Z,102345.06
2023-01-25T04:45:46.443Z,102342.97
2023-01-25T04:48:22.633Z,102339.66
2023-01-25T04:50:59.245Z,102337.56
2023-01-25T04:53:28.539Z,102342.06
2023-01-25T04:56:27.392Z,102343.72
2023-01-25T04:59:16.891Z,102336.56
2023-01-25T05:05:53.424Z,102335.66
2023-01-25T05:08:27.059Z,102326.50
2023-01-25T05:11:00.399Z,102323.91
2023-01-25T05:13:37.495Z,102320.97
2023-01-25T05:16:18.113Z,102320.47
2023-01-25T05:18:49.313Z,102314.25
2023-01-25T05:21:52.699Z,102310.66
2023-01-25T05:24:22.505Z,102300.72
2023-01-25T05:27:04.153Z,102298.41
2023-01-25T05:29:51.565Z,102292.75
2023-01-25T05:32:24.437Z,102283.50
2023-01-25T05:34:53.857Z,102287.41
2023-01-25T05:37:24.729Z,102281.19
2023-01-25T05:40:04.351Z,102282.47
2023-01-25T05:42:37.342Z,102284.56
2023-01-25T05:45:10.803Z,102277.88
2023-01-25T05:47:42.101Z,102279.88
2023-01-25T05:50:12.064Z,102284.91
2023-01-25T05:52:59.978Z,102276.69
2023-01-25T05:55:31.450Z,102277.00
2023-01-25T05:58:09.520Z,102280.50
2023-01-25T06:00:40.072Z,102279.72
2023-01-25T06:03:14.727Z,102284.00
2023-01-25T06:05:43.889Z,102284.00
2023-01-25T06:08:12.395Z,102281.44
2023-01-25T06:10:52.202Z,102278.53
2023-01-25T06:13:22.255Z,102288.72
2023-01-25T06:15:54.637Z,102282.59
2023-01-25T06:18:41.713Z,102283.09
2023-01-25T06:21:15.957Z,102288.72
2023-01-25T06:23:45.245Z,102288.56
2023-01-25T06:26:16.785Z,102289.38
2023-01-25T06:28:45.079Z,102292.13
2023-01-25T06:31:15.299Z,102292.25
2023-01-25T06:33:50.578Z,102279.53
2023-01-25T06:36:22.698Z,102287.31
2023-01-25T06:38:52.303Z,102289.56
2023-01-25T06:41:22.870Z,102293.66
2023-01-25T06:43:54.316Z,102293.34
2023-01-25T06:46:23.164Z,102286.91
2023-01-25T06:48:51.971Z,102293.13
2023-01-25T06:51:20.527Z,102295.75
2023-01-25T06:53:49.079Z,102284.81
2023-01-25T06:56:21.633Z,102282.59
2023-01-25T06:58:52.053Z,102284.38
2023-01-25T07:01:27.665Z,102282.41
2023-01-25T07:03:59.949Z,102282.09
2023-01-25T07:06:33.345Z,102279.69
2023-01-25T07:09:06.149Z,102277.28
2023-01-25T07:11:34.790Z,102287.75
2023-01-25T07:14:05.128Z,102278.78
2023-01-25T07:16:39.305Z,102276.38
2023-01-25T07:19:08.807Z,102280.94
2023-01-25T07:21:37.664Z,102281.44
2023-01-25T07:24:06.970Z,102270.25
2023-01-25T07:26:35.410Z,102273.31
2023-01-25T07:29:05.349Z,102290.16
2023-01-25T07:31:34.143Z,102277.47
2023-01-25T07:34:02.759Z,102278.66
2023-01-25T07:36:32.957Z,102284.91
2023-01-25T07:39:01.233Z,102288.81
2023-01-25T07:41:29.442Z,102281.84
2023-01-25T07:43:59.315Z,102286.66
2023-01-25T07:46:37.542Z,102282.28
2023-01-25T07:49:05.642Z,102282.59
2023-01-25T07:51:34.062Z,102273.97
2023-01-25T07:54:04.576Z,102281.09
2023-01-25T07:56:34.660Z,102275.88
2023-01-25T07:59:04.100Z,102277.00
2023-01-25T08:01:34.535Z,102287.06
2023-01-25T08:04:05.757Z,102281.03
2023-01-25T08:06:38.869Z,102279.47
2023-01-25T08:09:09.988Z,102284.66
2023-01-25T08:11:38.602Z,102278.66
2023-01-25T08:14:06.940Z,102279.72
2023-01-25T08:16:36.061Z,102278.28
2023-01-25T08:19:06.457Z,102274.97
2023-01-25T08:21:35.998Z,102275.31
2023-01-25T08:24:07.943Z,102272.25
2023-01-25T08:26:37.528Z,102267.09
2023-01-25T08:29:10.817Z,102271.66
2023-01-25T08:31:41.812Z,102263.28
2023-01-25T08:34:12.473Z,102270.09
2023-01-25T08:36:43.659Z,102262.97
2023-01-25T08:39:15.770Z,102262.56
2023-01-25T08:41:45.591Z,102262.00
2023-01-25T08:44:14.590Z,102255.75
2023-01-25T08:46:45.266Z,102248.38
2023-01-25T08:49:15.325Z,102256.53
2023-01-25T08:51:44.979Z,102247.56
2023-01-25T08:54:16.013Z,102257.56
2023-01-25T08:56:45.490Z,102259.56
2023-01-25T08:59:19.304Z,102249.97
2023-01-25T09:01:47.556Z,102253.34
2023-01-25T09:04:17.410Z,102256.09
2023-01-25T09:06:46.257Z,102254.06
2023-01-25T09:09:15.010Z,102243.94
2023-01-25T09:11:43.622Z,102241.53
2023-01-25T09:14:12.184Z,102242.75
2023-01-25T09:16:40.690Z,102233.97
2023-01-25T09:19:11.575Z,102240.38
2023-01-25T09:21:41.692Z,102237.00
2023-01-25T09:24:10.133Z,102246.56
2023-01-25T09:26:44.227Z,102256.91
2023-01-25T09:29:13.650Z,102249.19
2023-01-25T09:31:43.973Z,102241.25
2023-01-25T09:34:38.497Z,102245.81
2023-01-25T09:37:10.839Z,102243.56
2023-01-25T09:39:39.427Z,102245.38
2023-01-25T09:42:37.791Z,102239.75
2023-01-25T09:45:30.644Z,102235.53
2023-01-25T09:48:05.814Z,102242.38
2023-01-25T09:50:38.348Z,102242.91
2023-01-25T09:53:24.845Z,102233.63
2023-01-25T09:55:56.109Z,102232.06
2023-01-25T09:58:32.017Z,102229.84
2023-01-25T10:01:19.556Z,102236.47
2023-01-25T10:03:56.421Z,102224.69
2023-01-25T10:06:35.001Z,102226.19
2023-01-25T10:09:13.264Z,102221.38
2023-01-25T10:11:43.547Z,102226.84
2023-01-25T10:14:16.236Z,102227.00
2023-01-25T10:17:05.576Z,102226.25
2023-01-25T10:19:53.698Z,102217.72
2023-01-25T10:22:28.845Z,102220.47
2023-01-25T10:25:20.533Z,102215.03
2023-01-25T10:28:01.410Z,102210.31
2023-01-25T10:30:49.632Z,102212.03
2023-01-25T10:33:21.300Z,102207.63
2023-01-25T10:35:51.428Z,102209.94
2023-01-25T10:38:28.632Z,102195.00
2023-01-25T10:41:03.101Z,102199.16
2023-01-25T10:43:31.580Z,102186.94
2023-01-25T10:46:00.169Z,102185.28
2023-01-25T10:48:32.944Z,102176.47
2023-01-25T10:51:01.429Z,102181.00
2023-01-25T10:53:33.183Z,102164.47
2023-01-25T10:56:19.327Z,102165.72
2023-01-25T10:58:49.487Z,102159.47
2023-01-25T11:01:34.819Z,102152.81
2023-01-25T11:04:03.917Z,102148.25
2023-01-25T11:06:35.812Z,102150.38
2023-01-25T11:09:35.155Z,102138.84
2023-01-25T11:12:16.972Z,102137.59
2023-01-25T11:14:45.821Z,102128.97
2023-01-25T11:17:30.484Z,102128.19
2023-01-25T11:20:19.288Z,102120.91
2023-01-25T11:22:53.461Z,102111.31
2023-01-25T11:25:32.960Z,102111.75
2023-01-25T11:28:18.380Z,102099.31
2023-01-25T11:30:48.848Z,102101.63
2023-01-25T11:33:19.772Z,102104.97
2023-01-25T11:36:10.669Z,102094.31
2023-01-25T11:38:47.792Z,102093.25
2023-01-25T11:41:27.543Z,102093.25
2023-01-25T11:44:19.749Z,102082.16
2023-01-25T11:47:00.951Z,102081.69
2023-01-25T11:49:40.042Z,102071.22
2023-01-25T11:52:21.565Z,102071.66
2023-01-25T11:54:59.605Z,102067.13
2023-01-25T11:57:39.520Z,102065.28
2023-01-25T12:00:25.136Z,102064.41
2023-01-25T12:03:19.695Z,102062.09
2023-01-25T12:05:58.106Z,102050.84
2023-01-25T12:08:43.158Z,102051.63
2023-01-25T12:11:22.125Z,102051.31
2023-01-25T12:13:59.097Z,102040.34
2023-01-25T12:16:44.788Z,102033.53
2023-01-25T12:19:30.112Z,102023.94
2023-01-25T12:22:35.562Z,102019.09
2023-01-25T12:25:20.405Z,102010.13
2023-01-25T12:28:04.359Z,101995.25
2023-01-25T12:30:44.453Z,101989.00
2023-01-25T12:33:19.727Z,101981.53
2023-01-25T12:35:54.893Z,101972.56
2023-01-25T12:38:29.315Z,101972.28
2023-01-25T12:41:03.772Z,101963.31
2023-01-25T12:43:38.202Z,101967.59
2023-01-25T12:46:16.229Z,101957.69
2023-01-25T12:48:49.805Z,101956.16
2023-01-25T12:51:19.917Z,101949.44
2023-01-25T12:53:51.849Z,101949.50
2023-01-25T12:56:32.740Z,101943.41
2023-01-25T12:59:09.200Z,101932.72
2023-01-25T13:01:50.597Z,101937.19
2023-01-25T13:04:29.822Z,101933.69
2023-01-25T13:07:08.598Z,101934.75
2023-01-25T13:09:45.580Z,101932.16
2023-01-25T13:12:14.154Z,101925.63
2023-01-25T13:14:43.707Z,101933.34
2023-01-25T13:17:25.046Z,101936.09
2023-01-25T13:19:56.594Z,101928.94
2023-01-25T13:22:58.730Z,101921.81
2023-01-25T13:25:27.805Z,101920.88
2023-01-25T13:28:38.275Z,101919.53
2023-01-25T13:31:07.973Z,101919.22
2023-01-25T13:33:37.101Z,101914.81
2023-01-25T13:36:45.508Z,101907.81
2023-01-25T13:39:45.381Z,101906.28
2023-01-25T13:42:22.005Z,101899.00
2023-01-25T13:44:52.612Z,101889.44
2023-01-25T13:47:25.099Z,101875.34
2023-01-25T13:49:58.998Z,101876.19
2023-01-25T13:52:31.629Z,101867.06
2023-01-25T13:55:01.755Z,101859.78
2023-01-25T13:57:33.020Z,101858.31
2023-01-25T14:00:11.413Z,101854.50
2023-01-25T14:02:46.947Z,101861.66
2023-01-25T14:05:21.879Z,101858.94
2023-01-25T14:07:57.555Z,101857.38
2023-01-25T14:10:30.067Z,101853.72
2023-01-25T14:13:01.451Z,101842.31
2023-01-25T14:15:31.249Z,101849.16
2023-01-25T14:18:19.227Z,101840.94
2023-01-25T14:20:53.568Z,101834.44
2023-01-25T14:23:26.807Z,101838.72
2023-01-25T14:25:59.314Z,101833.69
2023-01-25T14:28:29.631Z,101822.31
2023-01-25T14:31:01.502Z,101815.50
2023-01-25T14:33:36.079Z,101814.31
2023-01-25T14:36:22.824Z,101817.34
2023-01-25T14:38:53.759Z,101813.19
2023-01-25T14:41:28.831Z,101807.72
2023-01-25T14:44:00.538Z,101811.06
2023-01-25T14:46:34.255Z,101808.34
2023-01-25T14:49:28.066Z,101805.19
2023-01-25T14:52:03.432Z,101806.09
2023-01-25T14:54:34.235Z,101807.59
2023-01-25T14:57:05.582Z,101800.13
2023-01-25T14:59:38.316Z,101797.56
2023-01-25T15:02:20.089Z,101798.94
2023-01-25T15:04:57.198Z,101791.22
2023-01-25T15:07:42.018Z,101782.56
2023-01-25T15:10:19.967Z,101775.41
2023-01-25T15:13:13.720Z,101780.13
2023-01-25T15:16:12.883Z,101764.66
2023-01-25T15:18:45.698Z,101761.00
2023-01-25T15:21:16.472Z,101765.41
2023-01-25T15:23:47.307Z,101755.41
2023-01-25T15:26:21.023Z,101759.34
2023-01-25T15:28:52.208Z,101756.16
2023-01-25T15:31:23.377Z,101751.00
2023-01-25T15:33:55.902Z,101759.41
2023-01-25T15:36:24.561Z,101745.72
2023-01-25T15:38:53.509Z,101747.22
2023-01-25T15:41:22.391Z,101745.72
2023-01-25T15:43:52.592Z,101742.72
2023-01-25T15:46:23.681Z,101737.25
2023-01-25T15:48:54.148Z,101736.78
2023-01-25T15:51:24.318Z,101736.19
2023-01-25T15:53:53.308Z,101738.63
2023-01-25T15:56:23.155Z,101736.34
2023-01-25T15:58:54.920Z,101728.91
2023-01-25T16:01:27.016Z,101738.47
2023-01-25T16:03:56.095Z,101736.06
2023-01-25T16:06:35.564Z,101733.31
2023-01-25T16:09:13.099Z,101740.00
2023-01-25T16:11:41.753Z,101729.38
2023-01-25T16:14:11.751Z,101744.88
2023-01-25T16:16:42.782Z,101739.69
2023-01-25T16:19:14.377Z,101743.97
2023-01-25T16:21:43.299Z,101737.56
2023-01-25T16:24:13.001Z,101738.00
2023-01-25T16:26:44.618Z,101737.25
2023-01-25T16:29:15.060Z,101736.97
2023-01-25T16:31:45.027Z,101732.13
2023-01-25T16:34:13.344Z,101734.09
2023-01-25T16:36:41.975Z,101726.66
2023-01-25T16:39:19.531Z,101728.94
2023-01-25T16:41:51.094Z,101721.97
2023-01-25T16:44:20.779Z,101722.72
2023-01-25T16:46:50.676Z,101717.56
2023-01-25T16:49:21.843Z,101724.97
2023-01-25T16:51:50.878Z,101720.28
2023-01-25T16:54:21.213Z,101728.63
2023-01-25T16:56:53.168Z,101726.31
2023-01-25T16:59:25.036Z,101730.59
2023-01-25T17:01:56.673Z,101719.19
2023-01-25T17:04:24.966Z,101712.81
2023-01-25T17:06:54.285Z,101710.97
2023-01-25T17:09:25.740Z,101708.34
2023-01-25T17:11:57.058Z,101701.50
2023-01-25T17:14:31.940Z,101708.34
2023-01-25T17:17:00.872Z,101710.53
2023-01-25T17:19:29.372Z,101706.28
2023-01-25T17:21:59.218Z,101700.66
2023-01-25T17:24:29.071Z,101701.41
2023-01-25T17:26:58.439Z,101691.19
2023-01-25T17:29:29.863Z,101690.03
2023-01-25T17:31:59.112Z,101683.03
2023-01-25T17:34:28.120Z,101684.13
2023-01-25T17:36:57.082Z,101684.41
2023-01-25T17:39:26.218Z,101672.69
2023-01-25T17:41:54.871Z,101673.47
2023-01-25T17:44:25.548Z,101677.91
2023-01-25T17:46:55.548Z,101668.94
2023-01-25T17:49:27.277Z,101671.25
2023-01-25T17:51:55.659Z,101666.84
2023-01-25T17:54:24.159Z,101666.25
2023-01-25T17:56:54.177Z,101659.28
2023-01-25T17:59:22.858Z,101662.00
2023-01-25T18:01:51.805Z,101656.38
2023-01-25T18:04:22.933Z,101658.66
2023-01-25T18:06:51.670Z,101657.00
2023-01-25T18:09:21.948Z,101658.97
2023-01-25T18:11:50.738Z,101646.22
2023-01-25T18:14:20.024Z,101636.97
2023-01-25T18:16:48.707Z,101640.47
2023-01-25T18:19:18.050Z,101631.97
2023-01-25T18:21:47.786Z,101636.53
2023-01-25T18:24:27.291Z,101635.94
2023-01-25T18:27:00.077Z,101632.28
2023-01-25T18:29:46.857Z,101631.97
2023-01-25T18:32:16.625Z,101624.88
2023-01-25T18:34:44.763Z,101623.84
2023-01-25T18:37:21.881Z,101616.19
2023-01-25T18:39:52.310Z,101617.69
2023-01-25T18:42:22.052Z,101611.69
2023-01-25T18:44:50.257Z,101610.19
2023-01-25T18:47:20.602Z,101613.06
2023-01-25T18:49:50.468Z,101604.41
2023-01-25T18:52:25.667Z,101606.41
2023-01-25T18:54:54.883Z,101598.94
2023-01-25T18:57:23.210Z,101615.34
2023-01-25T18:59:52.063Z,101608.34
2023-01-25T19:02:20.899Z,101609.13
2023-01-25T19:04:52.112Z,101608.88
2023-01-25T19:07:20.375Z,101604.31
2023-01-25T19:09:50.343Z,101603.19
2023-01-25T19:12:18.823Z,101597.41
2023-01-25T19:14:47.862Z,101591.22
2023-01-25T19:17:17.178Z,101593.38
2023-01-25T19:19:45.419Z,101591.38
2023-01-25T19:22:14.283Z,101589.84
2023-01-25T19:24:42.713Z,101590.63
2023-01-25T19:27:12.482Z,101592.13
2023-01-25T19:29:40.700Z,101583.63
2023-01-25T19:32:11.144Z,101589.09
2023-01-25T19:34:40.878Z,101582.09
2023-01-25T19:37:09.086Z,101582.25
2023-01-25T19:39:37.498Z,101572.72
2023-01-25T19:42:06.786Z,101580.16
2023-01-25T19:44:36.608Z,101572.22
2023-01-25T19:47:07.734Z,101570.28
2023-01-25T19:49:36.042Z,101565.00
2023-01-25T19:52:05.582Z,101558.94
2023-01-25T19:54:34.604Z,101558.47
2023-01-25T19:57:05.767Z,101554.97
2023-01-25T19:59:37.431Z,101554.69
2023-01-25T20:02:06.328Z,101549.22
2023-01-25T20:04:34.723Z,101552.72
2023-01-25T20:07:02.960Z,101548.03
2023-01-25T20:09:31.324Z,101541.31
2023-01-25T20:12:00.650Z,101541.81
2023-01-25T20:14:29.656Z,101541.31
2023-01-25T20:17:00.845Z,101537.41
2023-01-25T20:19:30.323Z,101526.78
2023-01-25T20:22:00.554Z,101533.28
2023-01-25T20:24:29.588Z,101527.34
2023-01-25T20:26:59.963Z,101522.22
2023-01-25T20:29:29.269Z,101518.56
2023-01-25T20:31:59.033Z,101515.53
2023-01-25T20:34:27.787Z,101518.56
2023-01-25T20:36:56.740Z,101511.28
2023-01-25T20:39:25.452Z,101508.25
2023-01-25T20:41:56.790Z,101508.44
2023-01-25T20:44:25.152Z,101497.50
2023-01-25T20:46:55.743Z,101496.75
2023-01-25T20:49:27.626Z,101495.72
2023-01-25T20:51:57.110Z,101501.28
2023-01-25T20:54:26.050Z,101497.34
2023-01-25T20:56:54.875Z,101499.19
2023-01-25T20:59:24.706Z,101491.00
2023-01-25T21:01:53.543Z,101500.13
2023-01-25T21:04:22.061Z,101493.56
2023-01-25T21:06:52.873Z,101489.66
2023-01-25T21:09:23.681Z,101490.66
2023-01-25T21:11:52.398Z,101495.25
2023-01-25T21:14:20.932Z,101497.41
2023-01-25T21:16:49.533Z,101494.97
2023-01-25T21:19:18.002Z,101500.88
2023-01-25T21:21:46.575Z,101487.34
2023-01-25T21:24:17.403Z,101491.00
2023-01-25T21:26:46.189Z,101488.28
2023-01-25T21:29:14.644Z,101493.44
2023-01-25T21:31:43.726Z,101489.22
2023-01-25T21:34:12.688Z,101491.31
2023-01-25T21:36:41.008Z,101494.81
2023-01-25T21:39:09.525Z,101477.53
2023-01-25T21:41:40.234Z,101480.38
2023-01-25T21:44:27.270Z,101475.25
2023-01-25T21:47:27.786Z,101476.00
2023-01-25T21:50:05.708Z,101474.09
2023-01-25T21:52:36.331Z,101468.00
2023-01-25T21:55:05.541Z,101473.16
2023-01-25T21:57:36.552Z,101462.69
2023-01-25T22:00:05.472Z,101473.59
2023-01-25T22:02:34.218Z,101468.75
2023-01-25T22:05:02.866Z,101458.47
2023-01-25T22:07:33.705Z,101463.16
2023-01-25T22:10:02.268Z,101457.72
2023-01-25T22:12:30.745Z,101450.72
2023-01-25T22:15:00.390Z,101443.75
2023-01-25T22:17:29.450Z,101444.97
2023-01-25T22:19:59.330Z,101432.84
2023-01-25T22:22:27.780Z,101445.16
2023-01-25T22:24:57.552Z,101435.69
2023-01-25T22:27:37.628Z,101430.75
2023-01-25T22:30:11.408Z,101426.78
2023-01-25T22:32:40.054Z,101425.09
2023-01-25T22:35:09.710Z,101428.44
2023-01-25T22:37:38.858Z,101423.72
2023-01-25T22:40:09.229Z,101427.16
2023-01-25T22:42:38.975Z,101413.59
2023-01-25T22:45:10.561Z,101412.38
2023-01-25T22:47:38.866Z,101401.19
2023-01-25T22:50:08.409Z,101406.81
2023-01-25T22:52:38.085Z,101397.69
2023-01-25T22:55:06.600Z,101389.22
2023-01-25T22:57:39.219Z,101391.94
2023-01-25T23:00:11.976Z,101386.28
2023-01-25T23:02:40.595Z,101386.47
2023-01-25T23:05:09.633Z,101377.69
2023-01-25T23:07:37.951Z,101370.09
2023-01-25T23:10:07.504Z,101357.69
2023-01-25T23:12:35.727Z,101357.50
2023-01-25T23:15:07.160Z,101360.69
2023-01-25T23:17:54.281Z,101352.63
2023-01-25T23:20:23.866Z,101349.78
2023-01-25T23:22:52.505Z,101348.28
2023-01-25T23:25:21.034Z,101342.06
2023-01-25T23:27:49.728Z,101345.53
2023-01-25T23:30:18.564Z,101342.81
2023-01-25T23:32:49.832Z,101342.81
2023-01-25T23:35:19.339Z,101338.09
2023-01-25T23:37:48.555Z,101330.66
2023-01-25T23:40:17.737Z,101324.94
2023-01-25T23:42:46.231Z,101327.19
2023-01-25T23:45:14.774Z,101321.72
2023-01-25T23:47:43.432Z,101329.47
2023-01-25T23:50:13.571Z,101325.16
2023-01-25T23:52:42.492Z,101316.75
2023-01-25T23:55:13.715Z,101317.22
2023-01-25T23:57:41.879Z,101307.22
